Time;durP1;ratioP1;P1;durP2;ratioP2;P2;SDS_P1;SDS_P2;PMS_P1;PMS_P2;Temp;Humidity;BMP_temperature;BMP_pressure;BME280_temperature;BME280_humidity;BME280_pressure;Samples;Min_cycle;Max_cycle;Signal;HPM_P1;HPM_P2
2023/08/23 00:00:12;;;;;;;3.90;1.67;;;17.50;99.90;;;;;;5037715;28;20041;-63
2023/08/23 00:02:39;;;;;;;4.13;1.80;;;17.50;99.90;;;;;;5038566;28;20119;-65
2023/08/23 00:05:08;;;;;;;4.00;1.60;;;17.40;99.90;;;;;;5037478;28;20037;-64
2023/08/23 00:07:34;;;;;;;4.00;1.73;;;17.40;99.90;;;;;;5037267;28;20091;-64
2023/08/23 00:10:00;;;;;;;4.20;1.60;;;17.40;99.90;;;;;;5004697;28;20493;-65
2023/08/23 00:12:25;;;;;;;4.82;1.60;;;17.40;99.90;;;;;;5036965;28;20033;-65
2023/08/23 00:14:54;;;;;;;4.03;1.40;;;17.30;99.90;;;;;;5037303;28;20056;-63
2023/08/23 00:17:28;;;;;;;5.60;1.80;;;17.30;99.90;;;;;;5037786;28;20036;-64
2023/08/23 00:19:54;;;;;;;3.28;1.38;;;17.30;99.90;;;;;;5053937;28;20370;-63
2023/08/23 00:22:20;;;;;;;4.32;2.00;;;17.20;99.90;;;;;;5036295;28;20033;-64
2023/08/23 00:24:46;;;;;;;4.60;1.80;;;17.20;99.90;;;;;;5036927;28;20075;-65
2023/08/23 00:27:11;;;;;;;4.90;2.20;;;17.20;99.90;;;;;;5036772;28;20033;-64
2023/08/23 00:29:37;;;;;;;3.90;1.55;;;17.10;99.90;;;;;;5036952;28;20045;-63
2023/08/23 00:32:03;;;;;;;6.88;3.00;;;17.10;99.90;;;;;;5036965;28;20045;-64
2023/08/23 00:34:50;;;;;;;5.68;2.40;;;17.10;99.90;;;;;;5036913;28;20060;-65
2023/08/23 00:37:15;;;;;;;6.35;3.55;;;17.00;99.90;;;;;;5020007;28;20072;-64
2023/08/23 00:39:46;;;;;;;5.43;2.10;;;17.00;99.90;;;;;;5054442;28;20041;-65
2023/08/23 00:42:12;;;;;;;4.67;2.03;;;16.90;99.90;;;;;;5036540;28;20041;-64
2023/08/23 00:44:38;;;;;;;5.40;1.85;;;16.90;99.90;;;;;;5036462;28;20086;-64
2023/08/23 00:47:04;;;;;;;5.28;2.03;;;16.90;99.90;;;;;;5036424;28;20041;-64
2023/08/23 00:49:51;;;;;;;5.47;2.13;;;16.80;99.90;;;;;;5054480;28;20125;-65
2023/08/23 00:52:24;;;;;;;4.60;1.92;;;16.70;99.90;;;;;;5019764;28;20095;-63
2023/08/23 00:54:54;;;;;;;5.75;1.80;;;16.70;99.90;;;;;;5020525;28;20480;-64
2023/08/23 00:57:21;;;;;;;3.60;1.67;;;16.70;99.90;;;;;;5035939;28;20138;-64
2023/08/23 00:59:57;;;;;;;4.93;1.90;;;16.70;99.90;;;;;;5036507;28;20049;-65
2023/08/23 01:02:23;;;;;;;3.90;1.77;;;16.70;99.90;;;;;;5036097;28;20076;-63
2023/08/23 01:05:03;;;;;;;5.13;2.10;;;16.70;99.90;;;;;;5036370;28;20083;-64
2023/08/23 01:07:40;;;;;;;4.70;2.35;;;16.70;99.90;;;;;;4987984;28;20051;-64
2023/08/23 01:10:18;;;;;;;4.35;1.88;;;16.60;99.90;;;;;;5035934;28;20041;-65
2023/08/23 01:13:08;;;;;;;5.05;1.92;;;16.60;99.90;;;;;;5036223;28;20040;-64
2023/08/23 01:15:37;;;;;;;5.50;2.80;;;16.50;99.90;;;;;;5052505;28;20044;-63
2023/08/23 01:18:14;;;;;;;5.68;2.60;;;16.50;99.90;;;;;;5052711;28;20124;-64
2023/08/23 01:20:49;;;;;;;4.65;2.00;;;16.40;99.90;;;;;;5035759;28;20037;-65
2023/08/23 01:23:16;;;;;;;5.93;2.20;;;16.30;99.90;;;;;;5053637;28;20044;-63
2023/08/23 01:25:43;;;;;;;4.70;2.05;;;16.30;99.90;;;;;;5035697;28;20049;-64
2023/08/23 01:28:10;;;;;;;6.32;2.30;;;16.30;99.90;;;;;;5052541;28;20049;-64
2023/08/23 01:30:37;;;;;;;5.45;2.05;;;16.30;99.90;;;;;;5035847;28;20484;-63
2023/08/23 01:33:50;;;;;;;4.93;1.90;;;16.30;99.90;;;;;;5019338;28;20049;-63
2023/08/23 01:36:25;;;;;;;4.65;2.10;;;16.20;99.90;;;;;;4972686;28;20093;-65
2023/08/23 01:38:52;;;;;;;4.65;1.70;;;16.30;99.90;;;;;;5024301;28;20045;-64
2023/08/23 01:41:18;;;;;;;3.63;1.63;;;16.30;99.90;;;;;;5035869;28;20045;-63
2023/08/23 01:43:50;;;;;;;3.80;1.70;;;16.30;99.90;;;;;;5052171;28;20124;-64
2023/08/23 01:46:16;;;;;;;6.28;4.10;;;16.30;99.90;;;;;;5000858;28;20045;-63
2023/08/23 01:48:42;;;;;;;4.97;2.10;;;16.30;99.90;;;;;;5019038;28;20063;-64
2023/08/23 01:51:08;;;;;;;5.05;2.00;;;16.30;99.90;;;;;;5035325;28;20080;-64
2023/08/23 01:53:37;;;;;;;7.53;3.60;;;16.30;99.90;;;;;;5018987;28;20040;-63
2023/08/23 01:56:09;;;;;;;6.03;2.90;;;16.30;99.90;;;;;;5035674;28;20099;-64
2023/08/23 01:58:38;;;;;;;6.25;3.25;;;16.20;99.90;;;;;;5018984;28;20065;-64
2023/08/23 02:01:04;;;;;;;6.63;3.17;;;16.20;99.90;;;;;;5036001;28;20040;-64
2023/08/23 02:03:30;;;;;;;7.40;3.97;;;16.10;99.90;;;;;;5035440;28;20037;-64
2023/08/23 02:05:59;;;;;;;5.57;3.80;;;16.10;99.90;;;;;;5035456;28;20045;-64
2023/08/23 02:08:25;;;;;;;5.18;2.60;;;16.10;99.90;;;;;;5002982;28;20087;-65
2023/08/23 02:10:51;;;;;;;6.13;2.80;;;16.10;99.90;;;;;;5035293;28;20190;-64
2023/08/23 02:13:16;;;;;;;4.78;3.00;;;16.10;99.90;;;;;;5019009;28;20409;-64
2023/08/23 02:15:44;;;;;;;5.20;3.20;;;16.00;99.90;;;;;;5053081;28;20045;-63
2023/08/23 02:18:10;;;;;;;4.60;2.20;;;16.00;99.90;;;;;;5002360;28;20048;-64
2023/08/23 02:20:39;;;;;;;7.53;3.92;;;15.90;99.90;;;;;;5035272;28;20482;-64
2023/08/23 02:23:05;;;;;;;12.57;4.72;;;15.90;99.90;;;;;;5035226;28;20079;-64
2023/08/23 02:25:31;;;;;;;4.38;2.78;;;15.80;99.90;;;;;;5034963;28;20063;-64
2023/08/23 02:28:00;;;;;;;4.05;2.08;;;15.80;99.90;;;;;;5035298;28;20048;-65
2023/08/23 02:30:36;;;;;;;4.47;2.45;;;15.80;99.90;;;;;;5034883;28;20048;-64
2023/08/23 02:33:02;;;;;;;4.70;2.30;;;15.80;99.90;;;;;;5018768;28;20190;-65
2023/08/23 02:35:28;;;;;;;5.03;2.80;;;15.90;99.90;;;;;;5002312;28;20131;-63
2023/08/23 02:37:58;;;;;;;5.07;2.50;;;15.90;99.90;;;;;;5035157;28;20485;-71
2023/08/23 02:40:43;;;;;;;4.60;2.80;;;15.90;99.90;;;;;;5035206;28;20037;-71
2023/08/23 02:43:09;;;;;;;4.53;2.22;;;16.00;99.90;;;;;;5035317;28;20064;-71
2023/08/23 02:45:42;;;;;;;4.75;2.70;;;16.00;99.90;;;;;;5037172;28;20037;-71
2023/08/23 02:48:11;;;;;;;4.72;2.22;;;16.00;99.90;;;;;;5038813;28;20041;-70
2023/08/23 02:50:37;;;;;;;4.40;2.55;;;16.00;99.90;;;;;;5022654;28;20045;-72
2023/08/23 02:53:06;;;;;;;4.20;2.25;;;16.10;99.90;;;;;;5039167;28;20511;-70
2023/08/23 02:55:37;;;;;;;5.00;3.40;;;16.10;99.90;;;;;;5038746;28;20051;-71
2023/08/23 02:58:03;;;;;;;4.93;2.90;;;16.10;99.90;;;;;;5038409;28;20056;-70
2023/08/23 03:00:44;;;;;;;4.63;2.40;;;16.10;99.90;;;;;;5038668;28;20153;-71
2023/08/23 03:03:16;;;;;;;4.20;2.45;;;16.10;99.90;;;;;;5024513;28;20433;-72
2023/08/23 03:05:56;;;;;;;4.72;2.50;;;16.10;99.90;;;;;;5056514;28;20424;-71
2023/08/23 03:08:25;;;;;;;4.85;2.92;;;16.10;99.90;;;;;;5038889;28;20481;-72
2023/08/23 03:11:03;;;;;;;4.78;2.58;;;16.00;99.90;;;;;;5038434;28;20041;-72
2023/08/23 03:13:28;;;;;;;5.43;3.13;;;16.10;99.90;;;;;;5038386;28;20040;-71
2023/08/23 03:15:54;;;;;;;5.30;2.60;;;16.10;99.90;;;;;;5055266;28;20063;-71
2023/08/23 03:18:20;;;;;;;5.60;3.67;;;16.10;99.90;;;;;;5038171;28;20051;-71
2023/08/23 03:20:47;;;;;;;4.90;2.75;;;16.10;99.90;;;;;;5022197;28;20489;-71
2023/08/23 03:23:13;;;;;;;4.90;2.42;;;16.00;99.90;;;;;;5056182;28;20037;-72
2023/08/23 03:25:39;;;;;;;4.82;3.17;;;16.00;99.90;;;;;;5038211;28;20048;-71
2023/08/23 03:28:05;;;;;;;4.75;2.85;;;16.00;99.90;;;;;;5005177;28;20094;-69
2023/08/23 03:30:31;;;;;;;4.78;3.20;;;15.90;99.90;;;;;;5038036;28;20099;-69
2023/08/23 03:32:56;;;;;;;4.95;2.78;;;15.90;99.90;;;;;;5038530;28;20443;-71
2023/08/23 03:35:22;;;;;;;6.30;4.47;;;15.90;99.90;;;;;;5021626;28;20040;-71
2023/08/23 03:37:51;;;;;;;5.40;3.45;;;15.90;99.90;;;;;;5038019;28;20052;-71
2023/08/23 03:40:17;;;;;;;7.22;4.88;;;15.90;99.90;;;;;;5037838;28;20086;-71
2023/08/23 03:42:43;;;;;;;6.25;4.05;;;15.90;99.90;;;;;;5038293;28;20033;-71
2023/08/23 03:45:09;;;;;;;5.40;3.30;;;15.90;99.90;;;;;;5037694;28;20239;-71
2023/08/23 03:47:35;;;;;;;4.90;2.95;;;15.90;99.90;;;;;;5038180;28;20393;-64
2023/08/23 03:50:01;;;;;;;5.93;3.38;;;15.90;99.90;;;;;;5021412;28;20044;-64
2023/08/23 03:52:27;;;;;;;8.07;5.25;;;15.90;99.90;;;;;;5037433;28;20507;-64
2023/08/23 03:54:53;;;;;;;8.63;6.25;;;15.90;99.90;;;;;;5037713;28;20047;-66
2023/08/23 03:57:18;;;;;;;7.45;6.15;;;15.80;99.90;;;;;;5003433;28;20045;-64
2023/08/23 03:59:44;;;;;;;8.52;4.72;;;15.70;99.90;;;;;;5037268;28;20154;-63
2023/08/23 04:02:10;;;;;;;6.63;3.90;;;15.60;99.90;;;;;;5037379;28;20124;-65
2023/08/23 04:04:36;;;;;;;7.50;4.35;;;15.70;99.90;;;;;;5037743;28;20036;-64
2023/08/23 04:07:01;;;;;;;7.53;4.72;;;15.70;99.90;;;;;;5020881;28;20386;-65
2023/08/23 04:09:41;;;;;;;7.75;4.60;;;15.70;99.90;;;;;;5055018;28;20453;-63
2023/08/23 04:12:09;;;;;;;6.88;3.85;;;15.70;99.90;;;;;;5037810;28;20552;-64
2023/08/23 04:14:38;;;;;;;8.15;4.80;;;15.80;99.90;;;;;;5037333;28;20120;-65
2023/08/23 04:17:07;;;;;;;7.80;5.10;;;15.80;99.90;;;;;;5037839;28;20114;-64
2023/08/23 04:19:33;;;;;;;8.57;4.60;;;15.80;99.90;;;;;;5004140;28;20048;-64
2023/08/23 04:21:59;;;;;;;6.97;4.60;;;15.90;99.90;;;;;;5036920;28;20047;-64
2023/08/23 04:24:25;;;;;;;7.07;5.28;;;15.90;99.90;;;;;;5036937;28;20463;-63
2023/08/23 04:26:51;;;;;;;7.30;5.43;;;15.90;99.90;;;;;;5036958;28;20087;-63
2023/08/23 04:29:16;;;;;;;8.60;7.00;;;15.90;99.90;;;;;;5036735;28;20109;-63
2023/08/23 04:31:42;;;;;;;7.80;6.10;;;16.00;99.90;;;;;;5036731;28;20041;-63
2023/08/23 04:34:08;;;;;;;14.80;8.18;;;16.00;99.90;;;;;;5054931;28;20041;-64
2023/08/23 04:36:34;;;;;;;10.45;8.50;;;16.00;99.90;;;;;;5036658;28;20048;-64
2023/08/23 04:39:00;;;;;;;13.38;9.07;;;16.00;99.90;;;;;;5037006;28;20112;-64
2023/08/23 04:41:26;;;;;;;20.13;12.70;;;16.10;99.90;;;;;;5020240;28;20077;-63
2023/08/23 04:43:51;;;;;;;15.07;12.65;;;16.00;99.90;;;;;;5036430;28;20094;-64
2023/08/23 04:46:17;;;;;;;34.00;14.50;;;16.10;99.90;;;;;;5036495;28;20048;-64
2023/08/23 04:48:43;;;;;;;29.92;12.80;;;16.10;99.90;;;;;;5003573;28;20040;-64
2023/08/23 04:51:10;;;;;;;14.18;10.88;;;16.10;99.90;;;;;;5036564;28;20045;-64
2023/08/23 04:53:38;;;;;;;25.17;13.45;;;16.10;99.90;;;;;;5054514;28;20063;-66
2023/08/23 04:56:04;;;;;;;13.70;11.50;;;16.10;99.90;;;;;;5054346;28;20045;-63
2023/08/23 04:58:31;;;;;;;16.77;13.23;;;16.10;99.90;;;;;;5036243;28;20481;-65
2023/08/23 05:01:05;;;;;;;24.52;15.55;;;16.10;99.90;;;;;;5004106;28;20493;-64
2023/08/23 05:03:31;;;;;;;16.35;13.00;;;16.10;99.90;;;;;;5036484;28;20460;-65
2023/08/23 05:06:01;;;;;;;16.95;13.60;;;16.10;99.90;;;;;;5019900;28;20048;-64
2023/08/23 05:08:39;;;;;;;16.83;14.52;;;16.20;99.90;;;;;;5035598;28;20040;-64
2023/08/23 05:11:05;;;;;;;16.65;15.02;;;16.20;99.90;;;;;;5036901;28;20128;-64
2023/08/23 05:13:31;;;;;;;15.40;13.80;;;16.10;99.90;;;;;;5036188;28;20452;-64
2023/08/23 05:15:57;;;;;;;15.30;13.35;;;16.20;99.90;;;;;;5036039;28;20041;-65
2023/08/23 05:18:38;;;;;;;16.35;13.93;;;16.20;99.90;;;;;;5053970;28;20049;-63
2023/08/23 05:21:05;;;;;;;13.23;11.55;;;16.20;99.90;;;;;;5038103;28;20048;-64
2023/08/23 05:23:31;;;;;;;19.38;16.27;;;16.30;99.90;;;;;;5052418;28;20037;-62
2023/08/23 05:25:57;;;;;;;18.35;16.00;;;16.30;99.90;;;;;;5053553;28;20067;-64
2023/08/23 05:28:23;;;;;;;15.23;12.57;;;16.30;99.90;;;;;;5053715;28;20032;-62
2023/08/23 05:30:52;;;;;;;12.90;10.57;;;16.30;99.90;;;;;;5019458;28;20537;-62
2023/08/23 05:33:17;;;;;;;20.38;15.38;;;16.40;99.90;;;;;;5035630;28;20037;-62
2023/08/23 05:35:44;;;;;;;21.45;17.63;;;16.40;99.90;;;;;;5035526;28;20063;-63
2023/08/23 05:38:10;;;;;;;16.63;14.10;;;16.50;99.90;;;;;;5019296;28;20500;-63
2023/08/23 05:40:39;;;;;;;25.13;20.02;;;16.50;99.90;;;;;;5035800;28;20040;-63
2023/08/23 05:43:08;;;;;;;26.33;19.25;;;16.60;99.90;;;;;;5036398;28;20037;-61
2023/08/23 05:45:36;;;;;;;28.02;22.10;;;16.60;99.90;;;;;;5035665;28;20167;-63
2023/08/23 05:48:02;;;;;;;30.27;22.50;;;16.70;99.90;;;;;;5036164;28;20491;-62
2023/08/23 05:50:28;;;;;;;40.08;27.65;;;16.70;99.90;;;;;;5053183;28;20112;-62
2023/08/23 05:52:54;;;;;;;35.58;25.13;;;16.80;99.90;;;;;;5035254;28;20405;-62
2023/08/23 05:55:19;;;;;;;38.67;27.55;;;16.80;99.90;;;;;;5035303;28;20190;-62
2023/08/23 05:57:45;;;;;;;33.22;25.88;;;16.90;99.90;;;;;;5035140;28;20128;-62
2023/08/23 06:00:12;;;;;;;36.28;26.95;;;17.00;99.90;;;;;;5035613;28;20037;-62
2023/08/23 06:02:38;;;;;;;35.15;26.20;;;17.10;99.90;;;;;;5035268;28;20048;-62
2023/08/23 06:05:05;;;;;;;35.75;26.75;;;17.30;99.90;;;;;;5018993;28;20029;-63
2023/08/23 06:07:32;;;;;;;29.27;23.80;;;17.40;99.90;;;;;;5035598;28;20122;-62
2023/08/23 06:09:58;;;;;;;32.60;25.30;;;17.50;99.90;;;;;;5035512;28;20041;-62
2023/08/23 06:12:25;;;;;;;33.08;25.65;;;17.60;99.90;;;;;;5034507;28;20079;-62
2023/08/23 06:14:51;;;;;;;27.65;21.58;;;17.80;99.90;;;;;;5018857;28;20083;-62
2023/08/23 06:17:17;;;;;;;29.10;21.83;;;17.80;99.90;;;;;;5035121;28;20086;-62
2023/08/23 06:19:43;;;;;;;28.55;23.35;;;17.90;99.90;;;;;;5035651;28;20033;-62
2023/08/23 06:22:09;;;;;;;30.20;23.92;;;17.90;99.90;;;;;;5057087;28;20041;-62
2023/08/23 06:24:35;;;;;;;23.73;20.50;;;18.00;99.90;;;;;;5039118;28;20087;-63
2023/08/23 06:27:01;;;;;;;24.05;20.25;;;18.40;99.90;;;;;;5056895;28;20041;-63
2023/08/23 06:29:30;;;;;;;25.10;21.63;;;18.80;99.90;;;;;;5057202;28;20041;-62
2023/08/23 06:31:56;;;;;;;21.52;18.00;;;19.10;99.90;;;;;;5038984;28;20087;-62
2023/08/23 06:34:30;;;;;;;24.52;20.38;;;19.60;99.90;;;;;;5038916;28;20080;-62
2023/08/23 06:37:05;;;;;;;22.95;19.27;;;19.70;99.90;;;;;;5038940;28;20045;-64
2023/08/23 06:39:31;;;;;;;19.92;17.20;;;19.90;99.90;;;;;;5038843;28;20484;-62
2023/08/23 06:41:57;;;;;;;20.45;16.80;;;20.20;99.90;;;;;;5056745;28;20052;-62
2023/08/23 06:44:23;;;;;;;21.27;17.40;;;20.40;99.90;;;;;;5038831;28;20405;-62
2023/08/23 06:46:48;;;;;;;21.63;18.17;;;20.70;99.90;;;;;;5022170;28;20529;-63
2023/08/23 06:49:14;;;;;;;18.92;16.38;;;21.00;99.90;;;;;;5038904;28;20374;-62
2023/08/23 06:51:40;;;;;;;23.60;19.60;;;21.40;99.90;;;;;;5038537;28;20041;-63
2023/08/23 06:54:06;;;;;;;21.38;17.70;;;21.70;99.90;;;;;;5008773;28;20123;-61
2023/08/23 06:56:32;;;;;;;22.15;19.80;;;21.90;99.90;;;;;;5017096;28;20052;-63
2023/08/23 06:58:57;;;;;;;19.23;16.58;;;22.10;99.90;;;;;;5056042;28;20099;-63
2023/08/23 07:01:24;;;;;;;17.85;15.18;;;22.30;99.90;;;;;;5038379;28;20037;-62
2023/08/23 07:03:49;;;;;;;15.30;13.50;;;22.80;99.90;;;;;;5021873;28;20099;-62
2023/08/23 07:06:15;;;;;;;16.45;13.32;;;23.00;99.90;;;;;;5038625;28;20041;-62
2023/08/23 07:08:42;;;;;;;17.60;14.10;;;22.80;99.90;;;;;;5072732;28;20123;-63
2023/08/23 07:11:08;;;;;;;17.63;14.68;;;22.60;99.90;;;;;;5058244;28;20045;-63
2023/08/23 07:13:39;;;;;;;14.40;12.27;;;22.60;99.90;;;;;;5058588;28;20131;-63
2023/08/23 07:16:05;;;;;;;16.23;13.05;;;22.70;99.90;;;;;;5025071;28;20438;-63
2023/08/23 07:18:34;;;;;;;15.55;12.90;;;22.80;99.90;;;;;;5058041;28;20049;-70
2023/08/23 07:21:01;;;;;;;15.48;12.43;;;22.80;99.90;;;;;;5058130;28;20044;-71
2023/08/23 07:23:27;;;;;;;16.50;12.90;;;22.90;99.90;;;;;;5058455;28;20117;-70
2023/08/23 07:25:53;;;;;;;16.80;14.23;;;23.10;99.90;;;;;;5058599;28;20036;-71
2023/08/23 07:28:34;;;;;;;16.70;12.40;;;23.40;99.90;;;;;;5041800;28;20488;-71
2023/08/23 07:30:59;;;;;;;16.17;11.23;;;23.80;99.90;;;;;;5058113;28;20051;-72
2023/08/23 07:33:26;;;;;;;14.88;12.05;;;23.60;99.90;;;;;;5057893;28;20045;-72
2023/08/23 07:36:00;;;;;;;15.65;12.90;;;23.50;99.90;;;;;;5057815;28;20048;-71
2023/08/23 07:38:28;;;;;;;15.13;12.20;;;23.30;99.90;;;;;;5057672;28;20047;-72
2023/08/23 07:40:58;;;;;;;15.75;11.85;;;23.10;99.90;;;;;;5057696;28;20076;-72
2023/08/23 07:43:24;;;;;;;15.75;12.98;;;22.90;99.90;;;;;;5041175;28;20032;-71
2023/08/23 07:46:02;;;;;;;14.35;12.50;;;22.70;99.90;;;;;;5057519;28;20044;-72
2023/08/23 07:48:28;;;;;;;15.07;11.40;;;22.60;99.90;;;;;;5057906;28;20078;-72
2023/08/23 07:50:56;;;;;;;16.10;12.90;;;22.50;99.90;;;;;;5058015;28;20055;-72
2023/08/23 07:53:24;;;;;;;14.88;11.90;;;22.60;99.90;;;;;;5057877;28;20052;-72
2023/08/23 07:55:50;;;;;;;14.25;12.35;;;22.30;99.90;;;;;;5057309;28;20051;-72
2023/08/23 07:58:16;;;;;;;16.48;12.85;;;22.30;99.90;;;;;;5057478;28;20136;-70
2023/08/23 08:00:42;;;;;;;13.85;11.88;;;22.30;99.90;;;;;;5075601;28;20111;-72
2023/08/23 08:03:09;;;;;;;14.02;11.85;;;22.50;99.90;;;;;;5057411;28;20041;-71
2023/08/23 08:05:35;;;;;;;14.68;11.52;;;22.90;99.90;;;;;;5075484;28;20037;-72
2023/08/23 08:08:03;;;;;;;15.15;11.85;;;23.30;99.90;;;;;;5041018;28;20051;-71
2023/08/23 08:10:29;;;;;;;13.05;9.38;;;23.40;99.90;;;;;;5057466;28;20051;-72
2023/08/23 08:12:56;;;;;;;11.45;8.57;;;23.70;99.90;;;;;;5075099;28;20041;-73
2023/08/23 08:15:22;;;;;;;10.10;8.10;;;24.00;99.90;;;;;;5057298;28;20511;-72
2023/08/23 08:17:51;;;;;;;10.48;7.90;;;24.20;99.90;;;;;;5056970;28;20051;-70
2023/08/23 08:20:18;;;;;;;11.25;8.27;;;24.40;99.90;;;;;;5075345;28;20033;-72
2023/08/23 08:22:44;;;;;;;9.95;7.03;;;24.60;99.90;;;;;;5023817;28;20181;-71
2023/08/23 08:25:11;;;;;;;10.60;8.13;;;24.70;99.90;;;;;;5075121;28;20495;-73
2023/08/23 08:27:40;;;;;;;10.07;7.03;;;24.40;99.90;;;;;;5057214;28;20074;-73
2023/08/23 08:30:06;;;;;;;11.00;7.70;;;24.40;99.90;;;;;;5074514;28;20123;-71
2023/08/23 08:32:32;;;;;;;9.27;6.68;;;24.50;99.90;;;;;;5057010;28;20369;-71
2023/08/23 08:34:58;;;;;;;9.25;6.97;;;24.70;99.90;;;;;;5056912;28;20036;-74
2023/08/23 08:37:27;;;;;;;8.73;5.85;;;24.90;99.90;;;;;;5040660;28;20473;-71
2023/08/23 08:39:53;;;;;;;8.40;5.22;;;24.90;99.90;;;;;;5056530;28;20047;-72
2023/08/23 08:42:19;;;;;;;9.73;6.55;;;25.00;99.90;;;;;;5055843;28;20048;-71
2023/08/23 08:44:45;;;;;;;9.45;6.22;;;25.00;99.90;;;;;;5074632;28;20044;-71
2023/08/23 08:47:11;;;;;;;9.18;6.22;;;25.00;99.90;;;;;;5074317;28;20481;-74
2023/08/23 08:49:38;;;;;;;9.05;5.63;;;25.00;99.90;;;;;;5056547;28;20040;-72
2023/08/23 08:52:05;;;;;;;8.98;4.60;;;25.10;99.90;;;;;;5039589;28;20052;-72
2023/08/23 08:54:33;;;;;;;7.40;4.82;;;25.30;99.90;;;;;;5074646;28;20572;-74
2023/08/23 08:57:03;;;;;;;7.78;4.47;;;25.40;99.90;;;;;;5056329;28;20047;-73
2023/08/23 08:59:30;;;;;;;8.38;4.43;;;25.40;99.90;;;;;;5055988;28;20553;-72
2023/08/23 09:02:00;;;;;;;5.75;3.30;;;25.50;99.90;;;;;;5039810;28;20048;-71
2023/08/23 09:04:26;;;;;;;6.65;3.63;;;25.50;99.90;;;;;;5056825;28;20032;-72
2023/08/23 09:06:53;;;;;;;6.38;3.58;;;25.60;99.90;;;;;;5056413;28;20040;-72
2023/08/23 09:09:20;;;;;;;6.50;3.95;;;25.80;99.90;;;;;;5039478;28;20041;-71
2023/08/23 09:11:46;;;;;;;7.18;3.85;;;25.90;99.90;;;;;;5039452;28;20040;-71
2023/08/23 09:14:16;;;;;;;7.35;3.70;;;26.10;99.90;;;;;;5056307;28;20048;-73
2023/08/23 09:16:49;;;;;;;5.35;3.00;;;26.10;99.90;;;;;;5039592;28;20040;-73
2023/08/23 09:19:24;;;;;;;7.95;3.33;;;26.10;99.90;;;;;;5073661;28;20528;-72
2023/08/23 09:21:50;;;;;;;6.60;2.70;;;26.10;99.50;;;;;;5073711;28;20119;-74
2023/08/23 09:24:23;;;;;;;6.55;2.75;;;26.20;99.90;;;;;;5055758;28;20150;-72
2023/08/23 09:26:49;;;;;;;6.43;2.90;;;26.30;99.30;;;;;;5039174;28;20040;-73
2023/08/23 09:29:15;;;;;;;7.07;3.00;;;26.50;98.40;;;;;;5056104;28;20037;-72
2023/08/23 09:31:50;;;;;;;5.25;2.40;;;26.60;98.30;;;;;;5025539;28;20553;-71
2023/08/23 09:34:16;;;;;;;5.07;2.40;;;26.60;98.70;;;;;;5055785;28;20048;-72
2023/08/23 09:36:42;;;;;;;5.22;2.78;;;26.60;98.50;;;;;;5039646;28;20048;-72
2023/08/23 09:39:10;;;;;;;7.13;3.03;;;26.60;96.50;;;;;;5055698;28;20037;-71
2023/08/23 09:41:41;;;;;;;7.05;3.10;;;26.60;97.20;;;;;;5056238;28;20392;-73
2023/08/23 09:44:10;;;;;;;6.85;3.10;;;26.50;97.40;;;;;;5055461;28;20038;-73
2023/08/23 09:46:39;;;;;;;5.38;3.25;;;26.50;98.10;;;;;;5055748;28;20121;-72
2023/08/23 09:49:09;;;;;;;6.70;3.17;;;26.50;98.30;;;;;;5055663;28;20477;-73
2023/08/23 09:51:37;;;;;;;6.35;3.75;;;26.60;98.20;;;;;;5055775;28;20060;-73
2023/08/23 09:54:47;;;;;;;7.93;3.75;;;26.80;97.50;;;;;;5021964;28;20110;-72
2023/08/23 09:57:13;;;;;;;7.32;2.50;;;26.90;97.40;;;;;;5044168;28;20052;-73
2023/08/23 09:59:39;;;;;;;6.18;2.70;;;27.00;97.50;;;;;;5038597;28;20462;-73
2023/08/23 10:02:15;;;;;;;6.53;2.60;;;27.00;96.80;;;;;;5055317;28;20044;-73
2023/08/23 10:04:50;;;;;;;4.97;2.20;;;27.00;97.50;;;;;;5040131;28;20037;-71
2023/08/23 10:07:17;;;;;;;6.32;2.40;;;27.20;96.80;;;;;;5055577;28;20123;-72
2023/08/23 10:09:45;;;;;;;5.22;2.40;;;27.20;96.30;;;;;;5055204;28;20040;-74
2023/08/23 10:12:12;;;;;;;6.13;2.35;;;27.10;96.80;;;;;;5055305;28;20048;-74
2023/08/23 10:14:42;;;;;;;6.55;2.70;;;27.30;95.00;;;;;;5055705;28;20048;-72
2023/08/23 10:17:14;;;;;;;5.13;2.50;;;27.20;96.20;;;;;;5054929;28;20048;-74
2023/08/23 10:19:40;;;;;;;6.60;2.30;;;27.20;96.00;;;;;;5073258;28;20071;-72
2023/08/23 10:22:06;;;;;;;6.45;2.60;;;27.20;95.50;;;;;;5055014;28;20119;-73
2023/08/23 10:24:32;;;;;;;5.90;2.70;;;27.20;95.90;;;;;;5038593;28;20086;-72
2023/08/23 10:27:08;;;;;;;6.43;1.90;;;27.30;95.90;;;;;;5055355;28;20064;-63
2023/08/23 10:29:38;;;;;;;6.68;2.00;;;27.40;95.70;;;;;;5072760;28;20182;-62
2023/08/23 10:32:11;;;;;;;6.35;2.20;;;27.40;94.10;;;;;;5055323;28;20063;-65
2023/08/23 10:34:39;;;;;;;7.88;2.10;;;27.40;94.40;;;;;;5055355;28;20047;-64
2023/08/23 10:37:19;;;;;;;5.50;1.90;;;27.40;94.80;;;;;;5038469;28;20136;-74
2023/08/23 10:39:53;;;;;;;5.30;2.20;;;27.40;93.70;;;;;;5054976;28;20049;-73
2023/08/23 10:42:21;;;;;;;5.05;2.00;;;27.40;93.60;;;;;;5054862;28;20040;-71
2023/08/23 10:44:58;;;;;;;5.20;2.40;;;27.30;94.50;;;;;;5038604;28;20041;-74
2023/08/23 10:47:27;;;;;;;5.60;2.45;;;27.30;94.20;;;;;;5073076;28;20396;-72
2023/08/23 10:49:53;;;;;;;6.38;2.10;;;27.20;94.20;;;;;;5039043;28;20040;-72
2023/08/23 10:52:22;;;;;;;4.85;2.10;;;27.20;94.30;;;;;;5054771;28;20052;-72
2023/08/23 10:54:48;;;;;;;5.80;1.90;;;27.30;94.00;;;;;;5073093;28;20120;-72
2023/08/23 10:57:17;;;;;;;4.68;2.10;;;27.30;93.70;;;;;;5055241;28;20523;-72
2023/08/23 10:59:44;;;;;;;5.68;2.40;;;27.40;94.50;;;;;;5054900;28;20056;-71
2023/08/23 11:02:11;;;;;;;5.45;2.40;;;27.40;94.40;;;;;;5055277;28;20124;-72
2023/08/23 11:04:37;;;;;;;5.85;1.80;;;27.50;94.90;;;;;;5038392;28;20119;-72
2023/08/23 11:07:03;;;;;;;5.22;1.90;;;27.60;93.60;;;;;;5041209;28;20132;-73
2023/08/23 11:09:28;;;;;;;4.40;2.00;;;27.70;93.40;;;;;;5058469;28;20090;-71
2023/08/23 11:11:54;;;;;;;4.45;1.83;;;27.80;93.30;;;;;;5058440;28;20040;-72
2023/08/23 11:14:20;;;;;;;5.78;2.30;;;27.70;93.50;;;;;;5042391;28;20040;-73
2023/08/23 11:16:46;;;;;;;4.93;1.83;;;27.90;94.00;;;;;;5058410;28;20492;-73
2023/08/23 11:19:12;;;;;;;5.57;1.90;;;28.00;93.90;;;;;;5058483;28;20485;-73
2023/08/23 11:21:39;;;;;;;4.05;1.75;;;27.80;92.90;;;;;;5075160;28;20033;-74
2023/08/23 11:24:05;;;;;;;5.68;1.90;;;27.70;92.70;;;;;;5058284;28;20049;-72
2023/08/23 11:26:37;;;;;;;5.45;2.22;;;27.70;93.00;;;;;;5076227;28;20425;-72
2023/08/23 11:29:04;;;;;;;5.63;2.00;;;27.60;91.80;;;;;;5058208;28;20500;-72
2023/08/23 11:31:35;;;;;;;4.57;1.80;;;27.60;92.80;;;;;;5074680;28;20044;-73
2023/08/23 11:34:09;;;;;;;6.13;2.00;;;27.50;91.80;;;;;;5074770;28;20040;-72
2023/08/23 11:36:37;;;;;;;6.00;1.92;;;27.40;92.00;;;;;;5057956;28;20033;-73
2023/08/23 11:39:06;;;;;;;5.53;1.90;;;27.40;91.50;;;;;;5057868;28;20422;-73
2023/08/23 11:41:35;;;;;;;7.57;2.20;;;27.30;91.90;;;;;;5041445;28;20043;-73
2023/08/23 11:44:06;;;;;;;6.70;2.17;;;27.30;92.20;;;;;;5057602;28;20040;-71
2023/08/23 11:46:40;;;;;;;6.78;2.13;;;27.50;93.40;;;;;;5041598;28;20065;-73
2023/08/23 11:49:08;;;;;;;6.60;2.40;;;27.60;92.20;;;;;;5074606;28;20043;-72
2023/08/23 11:51:44;;;;;;;6.28;2.60;;;27.60;91.90;;;;;;5041268;28;20043;-71
2023/08/23 11:54:16;;;;;;;8.50;2.70;;;27.50;91.60;;;;;;5041189;28;20037;-74
2023/08/23 11:56:50;;;;;;;6.55;2.17;;;27.10;91.80;;;;;;5042179;28;20051;-73
2023/08/23 11:59:16;;;;;;;7.93;2.38;;;26.80;91.90;;;;;;5053720;28;20053;-72
2023/08/23 12:01:48;;;;;;;6.95;2.17;;;26.80;92.70;;;;;;5054318;28;20063;-74
2023/08/23 12:04:14;;;;;;;6.00;2.80;;;26.90;92.90;;;;;;5037654;28;20051;-73
2023/08/23 12:06:40;;;;;;;5.97;2.40;;;27.20;92.80;;;;;;5054186;28;20128;-73
2023/08/23 12:09:05;;;;;;;6.95;2.50;;;27.30;92.70;;;;;;5053989;28;20045;-73
2023/08/23 12:11:32;;;;;;;8.50;2.30;;;27.50;93.40;;;;;;5037231;28;20041;-72
2023/08/23 12:14:04;;;;;;;7.65;2.25;;;27.60;92.30;;;;;;5054072;28;20493;-73
2023/08/23 12:16:33;;;;;;;6.10;2.10;;;27.50;91.10;;;;;;5054033;28;20519;-73
2023/08/23 12:18:59;;;;;;;6.85;2.20;;;27.40;91.80;;;;;;5052594;28;20489;-72
2023/08/23 12:21:25;;;;;;;6.07;2.10;;;27.20;91.70;;;;;;5053789;28;20040;-74
2023/08/23 12:23:51;;;;;;;7.13;2.17;;;27.20;92.20;;;;;;5053546;28;20053;-72
2023/08/23 12:26:24;;;;;;;5.82;2.00;;;27.20;92.20;;;;;;5037367;28;20397;-73
2023/08/23 12:28:50;;;;;;;4.78;1.90;;;27.20;90.80;;;;;;5053607;28;20045;-73
2023/08/23 12:31:16;;;;;;;5.63;1.88;;;27.30;91.00;;;;;;5053557;28;20044;-72
2023/08/23 12:33:45;;;;;;;6.43;2.10;;;27.20;90.60;;;;;;5053915;28;20140;-73
2023/08/23 12:36:17;;;;;;;6.80;2.00;;;27.30;90.20;;;;;;5037516;28;20493;-73
2023/08/23 12:38:43;;;;;;;5.55;1.77;;;27.20;90.20;;;;;;5020459;28;20485;-72
2023/08/23 12:41:10;;;;;;;4.70;1.70;;;27.10;90.30;;;;;;5053636;28;20079;-72
2023/08/23 12:43:35;;;;;;;5.35;1.70;;;27.10;89.40;;;;;;5036594;28;20499;-72
2023/08/23 12:46:01;;;;;;;4.55;1.60;;;27.10;90.30;;;;;;5037028;28;20098;-71